sensor_id;sensor_type;location;lat;lon;timestamp;temperature;humidity
13684;DHT22;6914;53.552;9.908;2022-07-29T00:01:21;14.10;99.90
13684;DHT22;6914;53.552;9.908;2022-07-29T00:03:48;14.20;99.90
13684;DHT22;6914;53.552;9.908;2022-07-29T00:06:16;14.10;99.90
13684;DHT22;6914;53.552;9.908;2022-07-29T00:08:45;14.10;99.90
13684;DHT22;6914;53.552;9.908;2022-07-29T00:11:12;14.10;99.90
13684;DHT22;6914;53.552;9.908;2022-07-29T00:13:39;14.10;99.90
13684;DHT22;6914;53.552;9.908;2022-07-29T00:16:06;14.00;99.90
13684;DHT22;6914;53.552;9.908;2022-07-29T00:18:33;14.00;99.90
13684;DHT22;6914;53.552;9.908;2022-07-29T00:21:00;13.90;99.90
13684;DHT22;6914;53.552;9.908;2022-07-29T00:23:27;13.90;99.90
13684;DHT22;6914;53.552;9.908;2022-07-29T00:25:56;13.80;99.90
13684;DHT22;6914;53.552;9.908;2022-07-29T00:28:23;13.80;99.90
13684;DHT22;6914;53.552;9.908;2022-07-29T00:30:50;13.80;99.90
13684;DHT22;6914;53.552;9.908;2022-07-29T00:33:17;13.70;99.90
13684;DHT22;6914;53.552;9.908;2022-07-29T00:35:44;13.70;99.90
13684;DHT22;6914;53.552;9.908;2022-07-29T00:38:11;13.70;99.90
13684;DHT22;6914;53.552;9.908;2022-07-29T00:40:38;13.70;99.90
13684;DHT22;6914;53.552;9.908;2022-07-29T00:43:07;13.70;99.90
13684;DHT22;6914;53.552;9.908;2022-07-29T00:45:34;13.60;99.90
13684;DHT22;6914;53.552;9.908;2022-07-29T00:48:01;13.60;99.90
13684;DHT22;6914;53.552;9.908;2022-07-29T00:50:30;13.70;99.90
13684;DHT22;6914;53.552;9.908;2022-07-29T00:52:57;13.60;99.90
13684;DHT22;6914;53.552;9.908;2022-07-29T00:55:25;13.70;99.90
13684;DHT22;6914;53.552;9.908;2022-07-29T00:57:52;13.70;99.90
13684;DHT22;6914;53.552;9.908;2022-07-29T01:00:23;13.70;99.90
13684;DHT22;6914;53.552;9.908;2022-07-29T01:02:51;13.60;99.90
13684;DHT22;6914;53.552;9.908;2022-07-29T01:05:21;13.70;99.90
13684;DHT22;6914;53.552;9.908;2022-07-29T01:07:49;13.60;99.90
13684;DHT22;6914;53.552;9.908;2022-07-29T01:10:18;13.70;99.90
13684;DHT22;6914;53.552;9.908;2022-07-29T01:12:48;13.80;99.90
13684;DHT22;6914;53.552;9.908;2022-07-29T01:15:16;13.70;99.90
13684;DHT22;6914;53.552;9.908;2022-07-29T01:17:50;13.70;99.90
13684;DHT22;6914;53.552;9.908;2022-07-29T01:20:25;13.70;99.90
13684;DHT22;6914;53.552;9.908;2022-07-29T01:26:09;13.70;99.90
13684;DHT22;6914;53.552;9.908;2022-07-29T01:28:51;13.70;99.90
13684;DHT22;6914;53.552;9.908;2022-07-29T01:31:27;13.80;99.90
13684;DHT22;6914;53.552;9.908;2022-07-29T01:33:57;13.80;99.90
13684;DHT22;6914;53.552;9.908;2022-07-29T01:36:36;13.90;99.90
13684;DHT22;6914;53.552;9.908;2022-07-29T01:39:07;13.80;99.90
13684;DHT22;6914;53.552;9.908;2022-07-29T01:41:38;13.80;99.90
13684;DHT22;6914;53.552;9.908;2022-07-29T01:44:13;13.80;99.90
13684;DHT22;6914;53.552;9.908;2022-07-29T01:46:46;13.90;99.90
13684;DHT22;6914;53.552;9.908;2022-07-29T01:49:20;13.80;99.90
13684;DHT22;6914;53.552;9.908;2022-07-29T01:51:51;13.80;99.90
13684;DHT22;6914;53.552;9.908;2022-07-29T01:54:21;13.80;99.90
13684;DHT22;6914;53.552;9.908;2022-07-29T01:56:53;13.80;99.90
13684;DHT22;6914;53.552;9.908;2022-07-29T01:59:23;13.80;99.90
13684;DHT22;6914;53.552;9.908;2022-07-29T02:01:54;13.80;99.90
13684;DHT22;6914;53.552;9.908;2022-07-29T02:04:23;13.80;99.90
13684;DHT22;6914;53.552;9.908;2022-07-29T02:06:53;13.90;99.90
13684;DHT22;6914;53.552;9.908;2022-07-29T02:09:22;13.80;99.90
13684;DHT22;6914;53.552;9.908;2022-07-29T02:11:53;13.80;99.90
13684;DHT22;6914;53.552;9.908;2022-07-29T02:14:23;13.80;99.90
13684;DHT22;6914;53.552;9.908;2022-07-29T02:16:53;13.80;99.90
13684;DHT22;6914;53.552;9.908;2022-07-29T02:19:23;13.90;99.90
13684;DHT22;6914;53.552;9.908;2022-07-29T02:21:54;13.90;99.90
13684;DHT22;6914;53.552;9.908;2022-07-29T02:24:23;13.80;99.90
13684;DHT22;6914;53.552;9.908;2022-07-29T02:26:53;13.80;99.90
13684;DHT22;6914;53.552;9.908;2022-07-29T02:29:25;13.80;99.90
13684;DHT22;6914;53.552;9.908;2022-07-29T02:31:54;13.80;99.90
13684;DHT22;6914;53.552;9.908;2022-07-29T02:34:23;13.80;99.90
13684;DHT22;6914;53.552;9.908;2022-07-29T02:36:51;13.80;99.90
13684;DHT22;6914;53.552;9.908;2022-07-29T02:39:19;13.80;99.90
13684;DHT22;6914;53.552;9.908;2022-07-29T02:41:50;13.80;99.90
13684;DHT22;6914;53.552;9.908;2022-07-29T02:44:19;13.90;99.90
13684;DHT22;6914;53.552;9.908;2022-07-29T02:46:52;13.80;99.90
13684;DHT22;6914;53.552;9.908;2022-07-29T02:49:32;13.80;99.90
13684;DHT22;6914;53.552;9.908;2022-07-29T02:52:03;13.90;99.90
13684;DHT22;6914;53.552;9.908;2022-07-29T02:54:37;13.80;99.90
13684;DHT22;6914;53.552;9.908;2022-07-29T02:57:11;13.90;99.90
13684;DHT22;6914;53.552;9.908;2022-07-29T02:59:43;13.90;99.90
13684;DHT22;6914;53.552;9.908;2022-07-29T03:02:14;13.90;99.90
13684;DHT22;6914;53.552;9.908;2022-07-29T03:04:43;13.80;99.90
13684;DHT22;6914;53.552;9.908;2022-07-29T03:07:11;13.80;99.90
13684;DHT22;6914;53.552;9.908;2022-07-29T03:09:41;13.80;99.90
13684;DHT22;6914;53.552;9.908;2022-07-29T03:12:08;13.80;99.90
13684;DHT22;6914;53.552;9.908;2022-07-29T03:14:37;13.80;99.90
13684;DHT22;6914;53.552;9.908;2022-07-29T03:17:05;13.80;99.90
13684;DHT22;6914;53.552;9.908;2022-07-29T03:19:34;13.80;99.90
13684;DHT22;6914;53.552;9.908;2022-07-29T03:22:02;13.80;99.90
13684;DHT22;6914;53.552;9.908;2022-07-29T03:24:31;13.80;99.90
13684;DHT22;6914;53.552;9.908;2022-07-29T03:26:59;13.80;99.90
13684;DHT22;6914;53.552;9.908;2022-07-29T03:29:27;13.90;99.90
13684;DHT22;6914;53.552;9.908;2022-07-29T03:31:55;13.80;99.90
13684;DHT22;6914;53.552;9.908;2022-07-29T03:34:22;13.90;99.90
13684;DHT22;6914;53.552;9.908;2022-07-29T03:36:51;13.90;99.90
13684;DHT22;6914;53.552;9.908;2022-07-29T03:39:21;13.90;99.90
13684;DHT22;6914;53.552;9.908;2022-07-29T03:41:53;13.90;99.90
13684;DHT22;6914;53.552;9.908;2022-07-29T03:44:22;13.80;99.90
13684;DHT22;6914;53.552;9.908;2022-07-29T03:46:51;13.90;99.90
13684;DHT22;6914;53.552;9.908;2022-07-29T03:49:20;13.80;99.90
13684;DHT22;6914;53.552;9.908;2022-07-29T03:51:48;13.90;99.90
13684;DHT22;6914;53.552;9.908;2022-07-29T03:54:17;13.90;99.90
13684;DHT22;6914;53.552;9.908;2022-07-29T03:56:46;13.90;99.90
13684;DHT22;6914;53.552;9.908;2022-07-29T03:59:17;13.90;99.90
13684;DHT22;6914;53.552;9.908;2022-07-29T04:01:46;14.00;99.90
13684;DHT22;6914;53.552;9.908;2022-07-29T04:04:14;14.00;99.90
13684;DHT22;6914;53.552;9.908;2022-07-29T04:06:43;14.00;99.90
13684;DHT22;6914;53.552;9.908;2022-07-29T04:09:11;14.10;99.90
13684;DHT22;6914;53.552;9.908;2022-07-29T04:11:41;14.10;99.90
13684;DHT22;6914;53.552;9.908;2022-07-29T04:14:09;14.20;99.90
13684;DHT22;6914;53.552;9.908;2022-07-29T04:16:36;14.10;99.90
13684;DHT22;6914;53.552;9.908;2022-07-29T04:19:03;14.10;99.90
13684;DHT22;6914;53.552;9.908;2022-07-29T04:21:30;14.70;99.90
13684;DHT22;6914;53.552;9.908;2022-07-29T04:23:59;14.20;99.90
13684;DHT22;6914;53.552;9.908;2022-07-29T04:26:26;14.20;99.90
13684;DHT22;6914;53.552;9.908;2022-07-29T04:28:54;14.30;99.90
13684;DHT22;6914;53.552;9.908;2022-07-29T04:31:21;14.20;99.90
13684;DHT22;6914;53.552;9.908;2022-07-29T04:33:49;14.30;99.90
13684;DHT22;6914;53.552;9.908;2022-07-29T04:36:16;14.40;99.90
13684;DHT22;6914;53.552;9.908;2022-07-29T04:38:43;14.40;99.90
13684;DHT22;6914;53.552;9.908;2022-07-29T04:41:10;14.40;99.90
13684;DHT22;6914;53.552;9.908;2022-07-29T04:43:37;14.50;99.90
13684;DHT22;6914;53.552;9.908;2022-07-29T04:46:06;14.60;99.90
13684;DHT22;6914;53.552;9.908;2022-07-29T04:48:33;14.60;99.90
13684;DHT22;6914;53.552;9.908;2022-07-29T04:51:01;14.70;99.90
13684;DHT22;6914;53.552;9.908;2022-07-29T04:53:28;14.70;99.90
13684;DHT22;6914;53.552;9.908;2022-07-29T04:55:55;14.70;99.90
13684;DHT22;6914;53.552;9.908;2022-07-29T04:58:22;14.80;99.90
13684;DHT22;6914;53.552;9.908;2022-07-29T05:00:49;14.70;99.90
13684;DHT22;6914;53.552;9.908;2022-07-29T05:03:18;14.80;99.90
13684;DHT22;6914;53.552;9.908;2022-07-29T05:05:45;14.90;99.90
13684;DHT22;6914;53.552;9.908;2022-07-29T05:08:12;14.90;99.90
13684;DHT22;6914;53.552;9.908;2022-07-29T05:10:39;14.90;99.90
13684;DHT22;6914;53.552;9.908;2022-07-29T05:13:07;15.00;99.90
13684;DHT22;6914;53.552;9.908;2022-07-29T05:15:35;15.10;99.90
13684;DHT22;6914;53.552;9.908;2022-07-29T05:18:02;15.10;99.90
13684;DHT22;6914;53.552;9.908;2022-07-29T05:20:31;15.20;99.90
13684;DHT22;6914;53.552;9.908;2022-07-29T05:23:00;15.30;99.90
13684;DHT22;6914;53.552;9.908;2022-07-29T05:25:28;15.30;99.90
13684;DHT22;6914;53.552;9.908;2022-07-29T05:27:56;15.40;99.90
13684;DHT22;6914;53.552;9.908;2022-07-29T05:30:23;15.50;99.90
13684;DHT22;6914;53.552;9.908;2022-07-29T05:32:50;15.50;99.90
13684;DHT22;6914;53.552;9.908;2022-07-29T05:35:17;15.60;99.90
13684;DHT22;6914;53.552;9.908;2022-07-29T05:37:46;15.70;99.90
13684;DHT22;6914;53.552;9.908;2022-07-29T05:40:13;15.80;99.90
13684;DHT22;6914;53.552;9.908;2022-07-29T05:42:40;15.90;99.90
13684;DHT22;6914;53.552;9.908;2022-07-29T05:45:08;16.00;99.90
13684;DHT22;6914;53.552;9.908;2022-07-29T05:47:35;16.00;99.90
13684;DHT22;6914;53.552;9.908;2022-07-29T05:50:03;16.00;99.90
13684;DHT22;6914;53.552;9.908;2022-07-29T05:52:31;16.10;99.90
13684;DHT22;6914;53.552;9.908;2022-07-29T05:54:59;16.10;99.90
13684;DHT22;6914;53.552;9.908;2022-07-29T05:57:29;16.10;99.90
13684;DHT22;6914;53.552;9.908;2022-07-29T05:59:56;16.20;99.90
13684;DHT22;6914;53.552;9.908;2022-07-29T06:02:24;16.20;99.90
13684;DHT22;6914;53.552;9.908;2022-07-29T06:04:51;16.30;99.90
13684;DHT22;6914;53.552;9.908;2022-07-29T06:07:19;16.40;99.90
13684;DHT22;6914;53.552;9.908;2022-07-29T06:09:46;16.60;99.90
13684;DHT22;6914;53.552;9.908;2022-07-29T06:12:14;16.70;99.90
13684;DHT22;6914;53.552;9.908;2022-07-29T06:14:42;16.70;99.90
13684;DHT22;6914;53.552;9.908;2022-07-29T06:17:09;16.80;99.90
13684;DHT22;6914;53.552;9.908;2022-07-29T06:19:37;17.00;99.90
13684;DHT22;6914;53.552;9.908;2022-07-29T06:22:04;16.90;99.90
13684;DHT22;6914;53.552;9.908;2022-07-29T06:24:31;17.10;99.90
13684;DHT22;6914;53.552;9.908;2022-07-29T06:26:58;17.10;99.90
13684;DHT22;6914;53.552;9.908;2022-07-29T06:29:27;17.20;99.90
13684;DHT22;6914;53.552;9.908;2022-07-29T06:31:54;17.30;99.90
13684;DHT22;6914;53.552;9.908;2022-07-29T06:34:21;17.30;99.90
13684;DHT22;6914;53.552;9.908;2022-07-29T06:36:50;17.30;99.90
13684;DHT22;6914;53.552;9.908;2022-07-29T06:39:18;17.30;99.90
13684;DHT22;6914;53.552;9.908;2022-07-29T06:41:47;17.30;99.90
13684;DHT22;6914;53.552;9.908;2022-07-29T06:44:14;17.40;99.90
13684;DHT22;6914;53.552;9.908;2022-07-29T06:46:43;17.60;99.90
13684;DHT22;6914;53.552;9.908;2022-07-29T06:49:12;17.70;99.90
13684;DHT22;6914;53.552;9.908;2022-07-29T06:51:39;17.70;99.90
13684;DHT22;6914;53.552;9.908;2022-07-29T06:54:06;17.80;99.90
13684;DHT22;6914;53.552;9.908;2022-07-29T06:56:35;17.90;99.90
13684;DHT22;6914;53.552;9.908;2022-07-29T06:59:03;17.90;99.90
13684;DHT22;6914;53.552;9.908;2022-07-29T07:01:30;17.90;99.90
13684;DHT22;6914;53.552;9.908;2022-07-29T07:03:58;18.10;99.90
13684;DHT22;6914;53.552;9.908;2022-07-29T07:06:26;18.30;99.90
13684;DHT22;6914;53.552;9.908;2022-07-29T07:08:54;18.40;99.90
13684;DHT22;6914;53.552;9.908;2022-07-29T07:11:21;18.50;99.90
13684;DHT22;6914;53.552;9.908;2022-07-29T07:13:48;18.50;99.90
13684;DHT22;6914;53.552;9.908;2022-07-29T07:16:15;18.40;99.90
13684;DHT22;6914;53.552;9.908;2022-07-29T07:18:42;18.60;99.90
13684;DHT22;6914;53.552;9.908;2022-07-29T07:21:12;18.60;99.90
13684;DHT22;6914;53.552;9.908;2022-07-29T07:23:39;18.80;99.90
13684;DHT22;6914;53.552;9.908;2022-07-29T07:26:06;18.80;99.90
13684;DHT22;6914;53.552;9.908;2022-07-29T07:28:33;18.90;99.90
13684;DHT22;6914;53.552;9.908;2022-07-29T07:31:00;18.90;99.90
13684;DHT22;6914;53.552;9.908;2022-07-29T07:33:27;18.80;99.90
13684;DHT22;6914;53.552;9.908;2022-07-29T07:35:54;18.80;99.90
13684;DHT22;6914;53.552;9.908;2022-07-29T07:38:23;18.90;99.90
13684;DHT22;6914;53.552;9.908;2022-07-29T07:40:50;18.90;99.90
13684;DHT22;6914;53.552;9.908;2022-07-29T07:43:17;18.80;99.90
13684;DHT22;6914;53.552;9.908;2022-07-29T07:45:44;18.90;99.90
13684;DHT22;6914;53.552;9.908;2022-07-29T07:48:12;19.00;99.90
13684;DHT22;6914;53.552;9.908;2022-07-29T07:50:39;19.10;99.90
13684;DHT22;6914;53.552;9.908;2022-07-29T07:53:06;19.10;99.90
13684;DHT22;6914;53.552;9.908;2022-07-29T07:55:39;19.20;99.90
13684;DHT22;6914;53.552;9.908;2022-07-29T07:58:07;19.40;99.90
13684;DHT22;6914;53.552;9.908;2022-07-29T08:00:34;19.60;99.90
13684;DHT22;6914;53.552;9.908;2022-07-29T08:03:01;19.80;99.90
13684;DHT22;6914;53.552;9.908;2022-07-29T08:05:28;20.10;99.90
13684;DHT22;6914;53.552;9.908;2022-07-29T08:07:55;20.10;99.90
13684;DHT22;6914;53.552;9.908;2022-07-29T08:10:23;20.10;99.90
13684;DHT22;6914;53.552;9.908;2022-07-29T08:13:09;20.20;99.90
13684;DHT22;6914;53.552;9.908;2022-07-29T08:15:39;20.40;99.90
13684;DHT22;6914;53.552;9.908;2022-07-29T08:18:06;20.20;99.90
13684;DHT22;6914;53.552;9.908;2022-07-29T08:20:34;20.10;99.90
13684;DHT22;6914;53.552;9.908;2022-07-29T08:23:02;20.10;99.90
13684;DHT22;6914;53.552;9.908;2022-07-29T08:25:30;20.20;99.90
13684;DHT22;6914;53.552;9.908;2022-07-29T08:27:58;20.30;99.90
13684;DHT22;6914;53.552;9.908;2022-07-29T08:30:27;20.50;99.90
13684;DHT22;6914;53.552;9.908;2022-07-29T08:32:54;20.70;99.90
13684;DHT22;6914;53.552;9.908;2022-07-29T08:35:23;20.80;99.90
13684;DHT22;6914;53.552;9.908;2022-07-29T08:37:50;20.90;99.90
13684;DHT22;6914;53.552;9.908;2022-07-29T08:40:18;21.00;99.90
13684;DHT22;6914;53.552;9.908;2022-07-29T08:42:46;21.10;99.70
13684;DHT22;6914;53.552;9.908;2022-07-29T08:48:36;21.30;99.50
13684;DHT22;6914;53.552;9.908;2022-07-29T08:51:05;21.50;98.90
13684;DHT22;6914;53.552;9.908;2022-07-29T08:53:33;21.60;97.00
13684;DHT22;6914;53.552;9.908;2022-07-29T08:56:04;21.60;97.50
13684;DHT22;6914;53.552;9.908;2022-07-29T08:58:32;21.70;95.90
13684;DHT22;6914;53.552;9.908;2022-07-29T09:01:01;21.90;96.70
13684;DHT22;6914;53.552;9.908;2022-07-29T09:13:58;22.70;91.40
13684;DHT22;6914;53.552;9.908;2022-07-29T09:16:25;22.80;91.20
13684;DHT22;6914;53.552;9.908;2022-07-29T09:18:52;23.00;89.60
13684;DHT22;6914;53.552;9.908;2022-07-29T09:21:19;23.00;88.80
13684;DHT22;6914;53.552;9.908;2022-07-29T09:24:06;23.10;84.60
13684;DHT22;6914;53.552;9.908;2022-07-29T09:56:54;23.60;73.90
13684;DHT22;6914;53.552;9.908;2022-07-29T11:06:15;27.00;57.90
13684;DHT22;6914;53.552;9.908;2022-07-29T11:08:42;27.90;55.10
13684;DHT22;6914;53.552;9.908;2022-07-29T11:11:38;28.70;54.30
13684;DHT22;6914;53.552;9.908;2022-07-29T11:14:11;28.60;50.60
13684;DHT22;6914;53.552;9.908;2022-07-29T11:20:35;30.40;46.50
13684;DHT22;6914;53.552;9.908;2022-07-29T11:23:17;29.90;44.10
13684;DHT22;6914;53.552;9.908;2022-07-29T11:25:45;29.90;44.10
13684;DHT22;6914;53.552;9.908;2022-07-29T11:28:17;29.00;45.20
13684;DHT22;6914;53.552;9.908;2022-07-29T11:30:50;28.60;45.50
13684;DHT22;6914;53.552;9.908;2022-07-29T11:33:30;28.40;47.30
13684;DHT22;6914;53.552;9.908;2022-07-29T11:36:10;28.20;48.00
13684;DHT22;6914;53.552;9.908;2022-07-29T11:38:39;28.10;48.20
13684;DHT22;6914;53.552;9.908;2022-07-29T11:41:20;28.40;46.70
13684;DHT22;6914;53.552;9.908;2022-07-29T11:43:49;28.40;47.00
13684;DHT22;6914;53.552;9.908;2022-07-29T11:46:26;28.30;46.70
13684;DHT22;6914;53.552;9.908;2022-07-29T11:49:07;28.40;47.90
13684;DHT22;6914;53.552;9.908;2022-07-29T11:51:35;28.20;48.40
13684;DHT22;6914;53.552;9.908;2022-07-29T11:54:04;28.60;46.50
13684;DHT22;6914;53.552;9.908;2022-07-29T11:56:32;28.70;45.30
13684;DHT22;6914;53.552;9.908;2022-07-29T11:59:06;28.90;46.70
13684;DHT22;6914;53.552;9.908;2022-07-29T12:01:34;29.70;46.70
13684;DHT22;6914;53.552;9.908;2022-07-29T12:04:05;30.60;43.30
13684;DHT22;6914;53.552;9.908;2022-07-29T12:06:32;30.50;43.60
13684;DHT22;6914;53.552;9.908;2022-07-29T12:08:59;30.50;44.40
13684;DHT22;6914;53.552;9.908;2022-07-29T12:11:27;31.10;43.40
13684;DHT22;6914;53.552;9.908;2022-07-29T12:13:54;31.10;41.90
13684;DHT22;6914;53.552;9.908;2022-07-29T12:16:21;31.00;42.70
13684;DHT22;6914;53.552;9.908;2022-07-29T12:24:42;30.40;42.90
13684;DHT22;6914;53.552;9.908;2022-07-29T12:27:12;30.60;42.50
13684;DHT22;6914;53.552;9.908;2022-07-29T12:29:55;30.30;44.60
13684;DHT22;6914;53.552;9.908;2022-07-29T12:32:31;30.10;42.40
13684;DHT22;6914;53.552;9.908;2022-07-29T12:34:59;32.90;43.10
13684;DHT22;6914;53.552;9.908;2022-07-29T12:37:28;31.10;44.00
13684;DHT22;6914;53.552;9.908;2022-07-29T12:39:57;30.40;43.90
13684;DHT22;6914;53.552;9.908;2022-07-29T12:42:29;30.70;45.00
13684;DHT22;6914;53.552;9.908;2022-07-29T12:44:59;32.60;48.20
13684;DHT22;6914;53.552;9.908;2022-07-29T12:47:29;30.60;43.20
13684;DHT22;6914;53.552;9.908;2022-07-29T12:50:08;30.30;44.50
13684;DHT22;6914;53.552;9.908;2022-07-29T12:52:38;29.90;45.00
13684;DHT22;6914;53.552;9.908;2022-07-29T12:55:05;28.50;44.20
13684;DHT22;6914;53.552;9.908;2022-07-29T12:57:44;30.10;42.80
13684;DHT22;6914;53.552;9.908;2022-07-29T13:00:16;30.60;42.60
13684;DHT22;6914;53.552;9.908;2022-07-29T13:02:55;30.00;41.40
13684;DHT22;6914;53.552;9.908;2022-07-29T13:05:23;30.00;44.10
13684;DHT22;6914;53.552;9.908;2022-07-29T13:07:50;29.70;44.10
13684;DHT22;6914;53.552;9.908;2022-07-29T13:10:19;32.70;51.10
13684;DHT22;6914;53.552;9.908;2022-07-29T13:13:07;29.80;45.60
13684;DHT22;6914;53.552;9.908;2022-07-29T13:15:40;29.50;46.50
13684;DHT22;6914;53.552;9.908;2022-07-29T13:18:40;25.50;44.10
13684;DHT22;6914;53.552;9.908;2022-07-29T13:21:11;30.30;46.60
13684;DHT22;6914;53.552;9.908;2022-07-29T13:23:41;27.70;40.80
13684;DHT22;6914;53.552;9.908;2022-07-29T13:26:12;29.90;49.00
13684;DHT22;6914;53.552;9.908;2022-07-29T13:28:43;32.00;46.60
13684;DHT22;6914;53.552;9.908;2022-07-29T13:31:10;32.60;47.80
13684;DHT22;6914;53.552;9.908;2022-07-29T13:33:44;32.10;46.30
13684;DHT22;6914;53.552;9.908;2022-07-29T13:36:14;32.50;48.50
13684;DHT22;6914;53.552;9.908;2022-07-29T13:38:41;30.20;43.20
13684;DHT22;6914;53.552;9.908;2022-07-29T13:41:11;29.90;46.30
13684;DHT22;6914;53.552;9.908;2022-07-29T13:43:38;29.10;40.60
13684;DHT22;6914;53.552;9.908;2022-07-29T13:46:06;29.30;40.50
13684;DHT22;6914;53.552;9.908;2022-07-29T13:48:33;29.40;43.50
13684;DHT22;6914;53.552;9.908;2022-07-29T13:51:01;29.10;45.90
13684;DHT22;6914;53.552;9.908;2022-07-29T13:53:29;29.00;47.70
13684;DHT22;6914;53.552;9.908;2022-07-29T13:55:56;28.80;48.50
13684;DHT22;6914;53.552;9.908;2022-07-29T13:58:23;28.80;49.00
13684;DHT22;6914;53.552;9.908;2022-07-29T14:00:51;29.00;49.10
13684;DHT22;6914;53.552;9.908;2022-07-29T14:03:22;28.80;48.30
13684;DHT22;6914;53.552;9.908;2022-07-29T14:05:54;28.30;48.60
13684;DHT22;6914;53.552;9.908;2022-07-29T14:08:25;28.10;49.60
13684;DHT22;6914;53.552;9.908;2022-07-29T14:10:54;27.90;51.20
13684;DHT22;6914;53.552;9.908;2022-07-29T14:13:21;27.60;51.90
13684;DHT22;6914;53.552;9.908;2022-07-29T14:15:48;27.30;52.00
13684;DHT22;6914;53.552;9.908;2022-07-29T14:18:16;27.10;53.30
13684;DHT22;6914;53.552;9.908;2022-07-29T14:20:45;26.90;53.70
13684;DHT22;6914;53.552;9.908;2022-07-29T14:23:12;26.70;53.80
13684;DHT22;6914;53.552;9.908;2022-07-29T14:25:39;26.60;54.10
13684;DHT22;6914;53.552;9.908;2022-07-29T14:28:07;26.40;54.90
13684;DHT22;6914;53.552;9.908;2022-07-29T14:30:37;26.40;54.80
13684;DHT22;6914;53.552;9.908;2022-07-29T14:33:21;26.40;55.20
13684;DHT22;6914;53.552;9.908;2022-07-29T14:35:49;26.40;55.40
13684;DHT22;6914;53.552;9.908;2022-07-29T14:38:16;26.30;55.30
13684;DHT22;6914;53.552;9.908;2022-07-29T14:40:43;26.20;56.20
13684;DHT22;6914;53.552;9.908;2022-07-29T14:43:12;26.30;56.00
13684;DHT22;6914;53.552;9.908;2022-07-29T14:45:40;26.20;56.20
13684;DHT22;6914;53.552;9.908;2022-07-29T14:48:08;26.10;56.50
13684;DHT22;6914;53.552;9.908;2022-07-29T14:50:37;26.10;56.40
13684;DHT22;6914;53.552;9.908;2022-07-29T14:53:05;26.40;57.20
13684;DHT22;6914;53.552;9.908;2022-07-29T14:55:33;26.60;56.80
13684;DHT22;6914;53.552;9.908;2022-07-29T14:58:01;26.60;56.00
13684;DHT22;6914;53.552;9.908;2022-07-29T15:00:28;26.40;56.70
13684;DHT22;6914;53.552;9.908;2022-07-29T15:02:57;26.20;56.00
13684;DHT22;6914;53.552;9.908;2022-07-29T15:05:25;25.80;56.40
13684;DHT22;6914;53.552;9.908;2022-07-29T15:07:53;25.70;57.00
13684;DHT22;6914;53.552;9.908;2022-07-29T15:10:22;25.50;57.70
13684;DHT22;6914;53.552;9.908;2022-07-29T15:12:49;25.50;58.10
13684;DHT22;6914;53.552;9.908;2022-07-29T15:15:16;25.50;58.80
13684;DHT22;6914;53.552;9.908;2022-07-29T15:17:44;25.30;58.80
13684;DHT22;6914;53.552;9.908;2022-07-29T15:20:14;25.30;59.20
13684;DHT22;6914;53.552;9.908;2022-07-29T15:22:41;25.30;59.20
13684;DHT22;6914;53.552;9.908;2022-07-29T15:25:09;25.10;59.50
13684;DHT22;6914;53.552;9.908;2022-07-29T15:27:37;25.10;60.00
13684;DHT22;6914;53.552;9.908;2022-07-29T15:30:06;25.00;60.00
13684;DHT22;6914;53.552;9.908;2022-07-29T15:32:33;24.80;60.80
13684;DHT22;6914;53.552;9.908;2022-07-29T15:35:00;24.70;61.70
13684;DHT22;6914;53.552;9.908;2022-07-29T15:37:28;24.70;62.00
13684;DHT22;6914;53.552;9.908;2022-07-29T15:39:55;24.70;62.10
13684;DHT22;6914;53.552;9.908;2022-07-29T15:42:22;24.70;63.10
13684;DHT22;6914;53.552;9.908;2022-07-29T15:44:51;24.80;62.10
13684;DHT22;6914;53.552;9.908;2022-07-29T15:47:18;24.90;62.30
13684;DHT22;6914;53.552;9.908;2022-07-29T15:49:45;25.00;62.90
13684;DHT22;6914;53.552;9.908;2022-07-29T15:52:12;25.20;61.70
13684;DHT22;6914;53.552;9.908;2022-07-29T15:54:40;25.10;61.20
13684;DHT22;6914;53.552;9.908;2022-07-29T15:57:07;25.00;61.90
13684;DHT22;6914;53.552;9.908;2022-07-29T15:59:34;24.90;60.90
13684;DHT22;6914;53.552;9.908;2022-07-29T16:02:03;24.80;61.60
13684;DHT22;6914;53.552;9.908;2022-07-29T16:04:30;24.70;61.70
13684;DHT22;6914;53.552;9.908;2022-07-29T16:06:58;24.70;62.90
13684;DHT22;6914;53.552;9.908;2022-07-29T16:09:25;24.50;63.50
13684;DHT22;6914;53.552;9.908;2022-07-29T16:11:53;24.30;63.70
13684;DHT22;6914;53.552;9.908;2022-07-29T16:14:21;24.20;63.60
13684;DHT22;6914;53.552;9.908;2022-07-29T16:16:49;24.20;64.80
13684;DHT22;6914;53.552;9.908;2022-07-29T16:19:18;24.30;64.80
13684;DHT22;6914;53.552;9.908;2022-07-29T16:21:45;24.30;64.70
13684;DHT22;6914;53.552;9.908;2022-07-29T16:24:12;24.40;64.60
13684;DHT22;6914;53.552;9.908;2022-07-29T16:26:39;24.60;64.80
13684;DHT22;6914;53.552;9.908;2022-07-29T16:29:07;24.50;64.70
13684;DHT22;6914;53.552;9.908;2022-07-29T16:31:35;24.60;65.40
13684;DHT22;6914;53.552;9.908;2022-07-29T16:34:02;24.60;65.30
13684;DHT22;6914;53.552;9.908;2022-07-29T16:36:31;24.70;65.70
13684;DHT22;6914;53.552;9.908;2022-07-29T16:38:58;24.70;66.10
13684;DHT22;6914;53.552;9.908;2022-07-29T16:41:25;24.70;66.60
13684;DHT22;6914;53.552;9.908;2022-07-29T16:43:54;24.60;65.90
13684;DHT22;6914;53.552;9.908;2022-07-29T16:46:21;24.50;66.80
13684;DHT22;6914;53.552;9.908;2022-07-29T16:48:48;24.50;67.70
13684;DHT22;6914;53.552;9.908;2022-07-29T16:51:16;24.50;67.80
13684;DHT22;6914;53.552;9.908;2022-07-29T16:53:44;24.50;68.10
13684;DHT22;6914;53.552;9.908;2022-07-29T16:56:11;24.40;67.50
13684;DHT22;6914;53.552;9.908;2022-07-29T16:58:39;24.20;67.60
13684;DHT22;6914;53.552;9.908;2022-07-29T17:01:06;24.20;68.80
13684;DHT22;6914;53.552;9.908;2022-07-29T17:03:33;24.10;69.40
13684;DHT22;6914;53.552;9.908;2022-07-29T17:06:21;24.00;70.40
13684;DHT22;6914;53.552;9.908;2022-07-29T17:08:50;23.90;73.20
13684;DHT22;6914;53.552;9.908;2022-07-29T17:11:17;23.90;74.50
13684;DHT22;6914;53.552;9.908;2022-07-29T17:13:44;23.80;76.90
13684;DHT22;6914;53.552;9.908;2022-07-29T17:16:12;23.60;76.70
13684;DHT22;6914;53.552;9.908;2022-07-29T17:18:39;23.50;79.00
13684;DHT22;6914;53.552;9.908;2022-07-29T17:21:06;23.40;81.10
13684;DHT22;6914;53.552;9.908;2022-07-29T17:23:34;23.30;83.70
13684;DHT22;6914;53.552;9.908;2022-07-29T17:26:02;23.10;86.20
13684;DHT22;6914;53.552;9.908;2022-07-29T17:28:30;23.00;89.50
13684;DHT22;6914;53.552;9.908;2022-07-29T17:30:58;22.90;91.10
13684;DHT22;6914;53.552;9.908;2022-07-29T17:33:26;22.80;92.50
13684;DHT22;6914;53.552;9.908;2022-07-29T17:35:53;22.70;93.30
13684;DHT22;6914;53.552;9.908;2022-07-29T17:38:37;22.70;94.50
13684;DHT22;6914;53.552;9.908;2022-07-29T17:41:06;22.70;95.80
13684;DHT22;6914;53.552;9.908;2022-07-29T17:43:33;22.50;95.80
13684;DHT22;6914;53.552;9.908;2022-07-29T17:46:00;22.50;96.40
13684;DHT22;6914;53.552;9.908;2022-07-29T17:48:28;22.50;96.10
13684;DHT22;6914;53.552;9.908;2022-07-29T17:50:55;22.50;95.60
13684;DHT22;6914;53.552;9.908;2022-07-29T17:53:22;22.50;96.00
13684;DHT22;6914;53.552;9.908;2022-07-29T17:55:50;22.50;95.80
13684;DHT22;6914;53.552;9.908;2022-07-29T17:58:18;22.50;95.30
13684;DHT22;6914;53.552;9.908;2022-07-29T18:00:46;22.50;95.40